Time;durP1;ratioP1;P1;durP2;ratioP2;P2;SDS_P1;SDS_P2;PMS_P1;PMS_P2;Temp;Humidity;BMP_temperature;BMP_pressure;BME280_temperature;BME280_humidity;BME280_pressure;Samples;Min_cycle;Max_cycle;Signal;HPM_P1;HPM_P2
2023/10/19 00:01:28;;;;;;;4.05;1.83;;;2.20;99.90;;;;;;5071033;28;20234;-88
2023/10/19 00:03:56;;;;;;;2.90;1.52;;;2.10;99.90;;;;;;5057056;28;20342;-86
2023/10/19 00:06:24;;;;;;;2.92;1.55;;;2.10;99.90;;;;;;5089823;28;20223;-88
2023/10/19 00:08:52;;;;;;;3.45;1.75;;;2.10;99.90;;;;;;5091663;28;20699;-88
2023/10/19 00:11:24;;;;;;;4.93;1.75;;;2.10;99.90;;;;;;5091355;28;20212;-87
2023/10/19 00:13:57;;;;;;;3.25;1.50;;;2.10;99.90;;;;;;5087756;28;20188;-88
2023/10/19 00:16:35;;;;;;;4.00;1.90;;;2.20;99.90;;;;;;5054907;28;20662;-88
2023/10/19 00:19:03;;;;;;;2.97;1.40;;;2.20;99.90;;;;;;5087807;28;20245;-88
2023/10/19 00:21:48;;;;;;;4.43;1.75;;;2.20;99.90;;;;;;5090841;28;20711;-88
2023/10/19 00:24:17;;;;;;;2.83;1.63;;;2.20;99.90;;;;;;5085778;28;20833;-88
2023/10/19 00:26:45;;;;;;;3.67;1.70;;;2.20;99.90;;;;;;5087421;28;20192;-88
2023/10/19 00:29:31;;;;;;;4.20;1.58;;;2.20;99.90;;;;;;5090320;28;20646;-88
2023/10/19 00:32:00;;;;;;;7.43;1.88;;;2.20;99.90;;;;;;5070801;28;20203;-87
2023/10/19 00:34:30;;;;;;;3.53;1.70;;;2.20;99.90;;;;;;5072304;28;20224;-89
2023/10/19 00:37:07;;;;;;;3.97;1.60;;;2.20;99.90;;;;;;5090576;28;20174;-88
2023/10/19 00:39:50;;;;;;;3.75;1.75;;;2.20;99.90;;;;;;5090183;28;20278;-87
2023/10/19 00:42:24;;;;;;;4.55;2.13;;;2.20;99.90;;;;;;5074093;28;20168;-88
2023/10/19 00:44:52;;;;;;;5.45;2.47;;;2.20;99.90;;;;;;5107638;28;20649;-89
2023/10/19 00:47:19;;;;;;;4.57;2.22;;;2.20;99.90;;;;;;5087613;28;20176;-88
2023/10/19 00:49:48;;;;;;;5.68;2.85;;;2.10;99.90;;;;;;5076777;28;20229;-88
2023/10/19 00:52:19;;;;;;;8.50;2.78;;;2.20;99.90;;;;;;5075045;28;20188;-88
2023/10/19 00:57:20;;;;;;;4.88;2.30;;;2.20;99.90;;;;;;5070553;28;20195;-88
2023/10/19 00:59:51;;;;;;;5.10;2.55;;;2.20;99.90;;;;;;5053617;28;20185;-87
2023/10/19 01:02:28;;;;;;;7.03;2.58;;;2.00;99.90;;;;;;5080512;28;20848;-88
2023/10/19 01:05:21;;;;;;;7.65;2.75;;;2.00;99.90;;;;;;5088155;28;20276;-89
2023/10/19 01:07:56;;;;;;;4.70;2.30;;;2.10;99.90;;;;;;5084768;28;20662;-87
2023/10/19 01:10:28;;;;;;;6.22;2.50;;;2.00;99.90;;;;;;5071627;28;20196;-88
2023/10/19 01:12:56;;;;;;;6.15;2.35;;;1.90;99.90;;;;;;5069735;28;20246;-88
2023/10/19 01:17:58;;;;;;;6.93;2.78;;;2.00;99.90;;;;;;5081763;28;20543;-87
2023/10/19 01:28:53;;;;;;;5.53;2.53;;;1.90;99.90;;;;;;5069659;28;20196;-88
2023/10/19 01:31:22;;;;;;;5.50;2.10;;;1.80;99.90;;;;;;5072903;28;20196;-87
2023/10/19 01:33:50;;;;;;;5.25;2.65;;;1.90;99.90;;;;;;5052960;28;20233;-88
2023/10/19 01:36:24;;;;;;;5.55;2.45;;;2.00;99.90;;;;;;5081170;28;20721;-87
2023/10/19 01:39:00;;;;;;;5.47;2.75;;;2.10;99.90;;;;;;5079429;28;20204;-89
2023/10/19 01:41:30;;;;;;;4.90;2.00;;;2.10;99.90;;;;;;5076221;28;20208;-88
2023/10/19 01:44:04;;;;;;;5.72;2.60;;;2.20;99.90;;;;;;5088284;28;20189;-87
2023/10/19 01:46:36;;;;;;;6.55;2.13;;;2.10;99.90;;;;;;5087000;28;20228;-87
2023/10/19 01:49:04;;;;;;;5.80;2.58;;;2.10;99.90;;;;;;5069356;28;20695;-87
2023/10/19 01:51:38;;;;;;;5.72;2.60;;;2.20;99.90;;;;;;5074354;28;20184;-87
2023/10/19 01:54:07;;;;;;;4.53;2.20;;;2.20;99.90;;;;;;5071306;28;20693;-87
2023/10/19 01:56:36;;;;;;;5.55;3.00;;;2.10;99.90;;;;;;5081044;28;20562;-88
2023/10/19 01:59:04;;;;;;;7.50;2.78;;;2.10;99.90;;;;;;5086410;28;20525;-86
2023/10/19 02:01:32;;;;;;;5.57;2.67;;;2.00;99.90;;;;;;5089100;28;20759;-87
2023/10/19 02:04:05;;;;;;;7.57;2.78;;;2.00;99.90;;;;;;5086936;28;20691;-87
2023/10/19 02:06:38;;;;;;;7.50;2.75;;;2.10;99.90;;;;;;5067459;28;20188;-86
2023/10/19 02:09:17;;;;;;;6.05;2.72;;;2.00;99.90;;;;;;5088930;28;20219;-86
2023/10/19 02:11:47;;;;;;;6.50;3.20;;;2.00;99.90;;;;;;5096640;28;20200;-87
2023/10/19 02:14:18;;;;;;;7.13;2.65;;;1.80;99.90;;;;;;5076892;28;20192;-87
2023/10/19 02:16:52;;;;;;;7.28;3.00;;;1.90;99.90;;;;;;5089042;28;20238;-88
2023/10/19 02:19:21;;;;;;;6.65;3.20;;;2.00;99.90;;;;;;5090210;28;20184;-88
2023/10/19 02:21:53;;;;;;;8.23;3.13;;;1.90;99.90;;;;;;5092548;28;20184;-88
2023/10/19 02:24:21;;;;;;;5.32;2.47;;;1.90;99.90;;;;;;5093381;28;20279;-87
2023/10/19 02:26:54;;;;;;;7.53;2.88;;;1.90;99.90;;;;;;5089701;28;20185;-87
2023/10/19 02:29:23;;;;;;;6.72;2.45;;;1.90;99.90;;;;;;5074595;28;20208;-87
2023/10/19 02:31:50;;;;;;;5.22;2.72;;;1.80;99.90;;;;;;5076158;28;20809;-88
2023/10/19 02:34:18;;;;;;;5.40;2.80;;;1.80;99.90;;;;;;5095743;28;20247;-88
2023/10/19 02:36:49;;;;;;;5.20;2.55;;;1.80;99.90;;;;;;5081727;28;20188;-88
2023/10/19 02:39:17;;;;;;;6.82;2.55;;;1.80;99.90;;;;;;5091793;28;20195;-87
2023/10/19 02:41:50;;;;;;;6.60;2.42;;;1.80;99.90;;;;;;5060550;28;20208;-87
2023/10/19 02:44:22;;;;;;;6.00;2.83;;;1.80;99.90;;;;;;5096737;28;20673;-87
2023/10/19 02:46:53;;;;;;;5.18;2.17;;;1.70;99.90;;;;;;5089264;28;20670;-88
2023/10/19 02:49:22;;;;;;;3.75;2.13;;;1.70;99.90;;;;;;5073689;28;20287;-87
2023/10/19 02:51:52;;;;;;;7.78;2.65;;;1.70;99.90;;;;;;5074201;28;20180;-87
2023/10/19 02:54:22;;;;;;;3.90;2.03;;;1.70;99.90;;;;;;5088157;28;20210;-87
2023/10/19 02:56:56;;;;;;;5.45;2.08;;;1.80;99.90;;;;;;5088954;28;20196;-88
2023/10/19 02:59:28;;;;;;;4.80;2.20;;;1.60;99.90;;;;;;5078799;28;20213;-87
2023/10/19 03:02:01;;;;;;;4.28;1.90;;;1.70;99.90;;;;;;5090224;28;20224;-87
2023/10/19 03:04:30;;;;;;;3.67;1.92;;;1.80;99.90;;;;;;5090083;28;20194;-87
2023/10/19 03:06:58;;;;;;;4.63;1.90;;;1.80;99.90;;;;;;5085174;28;20321;-88
2023/10/19 03:14:52;;;;;;;6.30;2.20;;;1.80;99.90;;;;;;5071036;28;20262;-87
2023/10/19 03:17:20;;;;;;;6.38;2.08;;;1.80;99.90;;;;;;5074822;28;20247;-87
2023/10/19 03:19:48;;;;;;;4.05;2.17;;;1.90;99.90;;;;;;5088872;28;20185;-87
2023/10/19 03:22:19;;;;;;;4.40;2.08;;;1.90;99.90;;;;;;5072494;28;20188;-87
2023/10/19 03:24:47;;;;;;;5.15;2.45;;;1.90;99.90;;;;;;5086471;28;20289;-86
2023/10/19 03:27:16;;;;;;;4.07;1.92;;;1.90;99.90;;;;;;5084636;28;20568;-86
2023/10/19 03:29:47;;;;;;;4.78;2.72;;;1.90;99.90;;;;;;5086405;28;20242;-87
2023/10/19 03:32:16;;;;;;;4.53;2.08;;;1.90;99.90;;;;;;5090465;28;20227;-86
2023/10/19 03:34:47;;;;;;;3.53;1.77;;;1.90;99.90;;;;;;5092040;28;20212;-87
2023/10/19 03:37:17;;;;;;;4.68;2.30;;;1.70;99.90;;;;;;5087456;28;20646;-88
2023/10/19 03:39:46;;;;;;;2.47;1.77;;;1.60;99.90;;;;;;5086269;28;20195;-87
2023/10/19 03:42:14;;;;;;;3.85;1.98;;;1.60;99.90;;;;;;5075119;28;20203;-87
2023/10/19 03:44:50;;;;;;;4.97;2.00;;;1.70;99.90;;;;;;5074758;28;20626;-88
2023/10/19 03:47:25;;;;;;;4.60;2.13;;;1.80;99.90;;;;;;5093140;28;20733;-87
2023/10/19 03:49:53;;;;;;;5.82;2.22;;;1.90;99.90;;;;;;5094773;27;20546;-87
2023/10/19 03:52:21;;;;;;;6.38;1.60;;;1.90;99.90;;;;;;5084843;28;20192;-87
2023/10/19 03:54:49;;;;;;;4.75;1.80;;;1.90;99.90;;;;;;5091546;28;20323;-87
2023/10/19 03:57:19;;;;;;;3.05;1.63;;;1.90;99.90;;;;;;5091373;28;20195;-87
2023/10/19 03:59:50;;;;;;;4.28;2.10;;;1.90;99.90;;;;;;5089429;28;20226;-87
2023/10/19 04:02:21;;;;;;;4.43;2.22;;;1.90;99.90;;;;;;5088756;28;20194;-86
2023/10/19 04:04:49;;;;;;;3.88;2.10;;;1.80;99.90;;;;;;5088545;28;20722;-87
2023/10/19 04:07:26;;;;;;;2.70;1.70;;;1.90;99.90;;;;;;5090905;28;20665;-87
2023/10/19 04:10:09;;;;;;;4.60;1.92;;;1.70;99.90;;;;;;5080057;28;20223;-87
2023/10/19 04:12:43;;;;;;;4.47;1.83;;;1.80;99.90;;;;;;5077978;28;20203;-88
2023/10/19 04:17:40;;;;;;;2.90;1.65;;;1.80;99.90;;;;;;5087513;28;20181;-88
2023/10/19 04:22:58;;;;;;;2.35;1.17;;;1.80;99.90;;;;;;5078580;28;20242;-87
2023/10/19 04:25:27;;;;;;;4.40;1.50;;;1.80;99.90;;;;;;5071039;28;20556;-88
2023/10/19 04:27:57;;;;;;;3.60;1.60;;;1.70;99.90;;;;;;5070938;28;20687;-86
2023/10/19 04:30:25;;;;;;;3.67;1.77;;;1.80;99.90;;;;;;5077028;28;20207;-88
2023/10/19 04:32:58;;;;;;;2.95;1.52;;;1.80;99.90;;;;;;5093260;28;20607;-88
2023/10/19 04:35:29;;;;;;;3.17;1.52;;;1.80;99.90;;;;;;5071851;28;20200;-86
2023/10/19 04:37:58;;;;;;;4.15;1.60;;;1.80;99.90;;;;;;5078686;28;20752;-89
2023/10/19 04:40:28;;;;;;;3.15;1.35;;;1.70;99.90;;;;;;5087645;28;20180;-88
2023/10/19 04:42:57;;;;;;;2.88;1.27;;;1.60;99.90;;;;;;5090933;28;20188;-89
2023/10/19 04:45:25;;;;;;;2.45;1.30;;;1.60;99.90;;;;;;5078968;28;20196;-89
2023/10/19 04:47:54;;;;;;;2.47;1.33;;;1.60;99.90;;;;;;5072772;28;20228;-88
2023/10/19 04:50:23;;;;;;;2.33;1.38;;;1.50;99.90;;;;;;5072698;28;20208;-87
2023/10/19 04:52:51;;;;;;;2.55;1.38;;;1.60;99.90;;;;;;5067492;28;20200;-86
2023/10/19 04:55:18;;;;;;;2.30;1.10;;;1.60;99.90;;;;;;5055043;28;20205;-90
2023/10/19 04:57:46;;;;;;;2.30;0.98;;;1.70;99.90;;;;;;5084415;28;20555;-88
2023/10/19 05:00:15;;;;;;;3.35;1.20;;;1.70;99.90;;;;;;5073492;28;20196;-86
2023/10/19 05:02:43;;;;;;;1.63;0.95;;;1.70;99.90;;;;;;5100584;28;20185;-87
2023/10/19 05:05:11;;;;;;;4.55;1.50;;;1.60;99.90;;;;;;5086410;28;20199;-86
2023/10/19 05:07:38;;;;;;;3.72;1.60;;;1.50;99.90;;;;;;5079505;28;20183;-87
2023/10/19 05:10:07;;;;;;;3.30;1.23;;;1.70;99.90;;;;;;5071152;28;20212;-88
2023/10/19 05:12:34;;;;;;;6.90;1.48;;;1.70;99.90;;;;;;5058484;28;20690;-89
2023/10/19 05:15:02;;;;;;;5.53;1.25;;;1.50;99.90;;;;;;5086229;28;20527;-89
2023/10/19 05:17:30;;;;;;;10.50;1.52;;;1.60;99.90;;;;;;5103819;28;20208;-89
2023/10/19 05:19:58;;;;;;;2.70;1.40;;;1.60;99.90;;;;;;5071527;28;20176;-89
2023/10/19 05:22:29;;;;;;;3.90;1.40;;;1.40;99.90;;;;;;5073738;28;20192;-89
2023/10/19 05:24:57;;;;;;;2.25;1.33;;;1.50;99.90;;;;;;5092767;28;20172;-89
2023/10/19 05:27:25;;;;;;;4.25;1.67;;;1.70;99.90;;;;;;5092621;28;20580;-90
2023/10/19 05:29:52;;;;;;;3.80;1.35;;;1.60;99.90;;;;;;5084875;28;20219;-90
2023/10/19 05:32:20;;;;;;;3.05;1.38;;;1.60;99.90;;;;;;5095280;28;20180;-90
2023/10/19 05:34:48;;;;;;;4.55;1.52;;;1.50;99.90;;;;;;5074068;28;20228;-89
2023/10/19 05:37:17;;;;;;;3.55;1.30;;;1.40;99.90;;;;;;5056316;28;20229;-90
2023/10/19 05:39:45;;;;;;;3.75;1.42;;;1.40;99.90;;;;;;5094102;28;20621;-89
2023/10/19 05:42:12;;;;;;;3.20;1.40;;;1.50;99.90;;;;;;5092805;28;20180;-89
2023/10/19 05:44:40;;;;;;;5.05;1.58;;;1.40;99.90;;;;;;5109871;28;20294;-90
2023/10/19 05:47:08;;;;;;;2.80;1.52;;;1.50;99.90;;;;;;5086578;28;20278;-89
2023/10/19 05:49:36;;;;;;;2.67;1.52;;;1.50;99.90;;;;;;5091117;28;20670;-89
2023/10/19 05:52:03;;;;;;;4.43;1.73;;;1.50;99.90;;;;;;5094136;28;20179;-89
2023/10/19 05:54:31;;;;;;;3.20;1.52;;;1.50;99.90;;;;;;5092731;28;20184;-89
2023/10/19 05:56:59;;;;;;;3.33;1.70;;;1.60;99.90;;;;;;5108690;28;20294;-90
2023/10/19 05:59:29;;;;;;;4.60;1.63;;;1.60;99.90;;;;;;5075354;28;20277;-90
2023/10/19 06:01:57;;;;;;;4.03;1.88;;;1.60;99.90;;;;;;5075553;28;20190;-90
2023/10/19 06:04:24;;;;;;;5.07;1.73;;;1.60;99.90;;;;;;5090224;28;20192;-89
2023/10/19 06:06:52;;;;;;;5.15;1.90;;;1.70;99.90;;;;;;5072802;28;20719;-89
2023/10/19 06:09:21;;;;;;;5.80;1.80;;;1.70;99.90;;;;;;5072299;28;20180;-90
2023/10/19 06:11:58;;;;;;;5.80;1.85;;;1.70;99.90;;;;;;5088378;28;20188;-89
2023/10/19 06:14:25;;;;;;;6.97;1.85;;;1.60;99.90;;;;;;5088738;28;20173;-89
2023/10/19 06:16:54;;;;;;;2.22;1.35;;;1.60;99.90;;;;;;5092390;28;20203;-89
2023/10/19 06:19:22;;;;;;;3.35;1.50;;;1.70;99.90;;;;;;5075672;28;20738;-89
2023/10/19 06:21:50;;;;;;;2.60;1.45;;;1.60;99.90;;;;;;5088196;28;20200;-89
2023/10/19 06:24:18;;;;;;;3.53;1.60;;;1.60;99.90;;;;;;5071360;28;20197;-89
2023/10/19 06:26:46;;;;;;;2.67;1.35;;;1.60;99.90;;;;;;5055807;28;20203;-89
2023/10/19 06:29:14;;;;;;;2.45;1.40;;;1.60;99.90;;;;;;5074513;28;20707;-90
2023/10/19 06:31:43;;;;;;;3.47;1.58;;;1.60;99.90;;;;;;5090004;28;20204;-90
2023/10/19 06:34:11;;;;;;;3.88;1.40;;;1.60;99.90;;;;;;5112803;28;20658;-89
2023/10/19 06:36:39;;;;;;;3.03;1.55;;;1.70;99.90;;;;;;5104111;28;20668;-90
2023/10/19 06:39:08;;;;;;;3.58;1.60;;;1.70;99.90;;;;;;5092423;28;20200;-90
2023/10/19 06:41:35;;;;;;;3.17;1.50;;;1.70;99.90;;;;;;5091699;28;20207;-89
2023/10/19 06:44:03;;;;;;;3.55;1.85;;;1.70;99.90;;;;;;5091815;28;20268;-90
2023/10/19 06:46:31;;;;;;;3.83;1.40;;;1.60;99.90;;;;;;5074219;28;20602;-89
2023/10/19 06:49:00;;;;;;;3.20;1.52;;;1.70;99.90;;;;;;5092392;28;20534;-90
2023/10/19 06:51:29;;;;;;;5.57;1.73;;;1.70;99.90;;;;;;5112187;28;20199;-89
2023/10/19 06:53:57;;;;;;;4.43;1.83;;;1.70;99.90;;;;;;5099290;28;20191;-90
2023/10/19 06:56:26;;;;;;;4.03;1.55;;;1.80;99.90;;;;;;5090582;28;20203;-90
2023/10/19 06:58:53;;;;;;;3.95;1.85;;;1.80;99.90;;;;;;5090993;28;20199;-90
2023/10/19 07:01:26;;;;;;;3.15;1.88;;;1.70;99.90;;;;;;5057989;28;20216;-90
2023/10/19 07:03:54;;;;;;;3.13;1.60;;;1.70;99.90;;;;;;5078329;28;20191;-90
2023/10/19 07:06:21;;;;;;;4.28;1.65;;;1.70;99.90;;;;;;5095749;28;20661;-89
2023/10/19 07:08:49;;;;;;;4.30;1.60;;;1.70;99.90;;;;;;5095742;28;20182;-90
2023/10/19 07:11:17;;;;;;;4.97;1.40;;;1.70;99.90;;;;;;5095881;28;20287;-89
2023/10/19 07:13:45;;;;;;;2.72;1.60;;;1.60;99.90;;;;;;5095731;28;20649;-89
2023/10/19 07:16:14;;;;;;;3.28;1.63;;;1.60;99.90;;;;;;5095310;28;20219;-89
2023/10/19 07:18:42;;;;;;;3.13;1.55;;;1.60;99.90;;;;;;5095769;28;20176;-90
2023/10/19 07:21:10;;;;;;;8.05;2.58;;;1.70;99.90;;;;;;5095651;28;20188;-89
2023/10/19 07:23:40;;;;;;;4.10;1.85;;;2.00;99.90;;;;;;5095368;28;20247;-90
2023/10/19 07:26:08;;;;;;;5.50;1.50;;;1.90;99.90;;;;;;5075022;28;20197;-90
2023/10/19 07:28:36;;;;;;;4.78;1.67;;;2.00;99.90;;;;;;5058568;28;20184;-90
2023/10/19 07:31:12;;;;;;;3.25;1.55;;;1.90;99.90;;;;;;5112252;28;20191;-90
2023/10/19 07:33:45;;;;;;;2.70;1.58;;;1.90;99.90;;;;;;5098878;28;20838;-90
2023/10/19 07:36:18;;;;;;;3.70;1.75;;;1.90;99.90;;;;;;5076611;28;20287;-89
2023/10/19 07:38:47;;;;;;;3.08;1.55;;;1.90;99.90;;;;;;5091158;28;20225;-89
2023/10/19 07:41:15;;;;;;;4.15;1.75;;;2.00;99.90;;;;;;5093424;28;20187;-89
2023/10/19 07:43:44;;;;;;;3.63;1.83;;;2.10;99.90;;;;;;5094768;28;20195;-90
2023/10/19 07:46:12;;;;;;;5.40;1.92;;;2.00;99.90;;;;;;5094179;28;20184;-89
2023/10/19 07:48:40;;;;;;;5.65;1.70;;;1.90;99.90;;;;;;5111534;27;20261;-89
2023/10/19 07:51:11;;;;;;;4.22;1.83;;;1.90;99.90;;;;;;5094773;28;20198;-89
2023/10/19 07:53:38;;;;;;;3.25;1.80;;;1.90;99.90;;;;;;5091773;28;20292;-89
2023/10/19 07:56:06;;;;;;;5.57;1.80;;;1.80;99.90;;;;;;5081291;28;20224;-90
2023/10/19 07:58:34;;;;;;;5.53;1.83;;;1.90;99.90;;;;;;5077621;28;20196;-89
2023/10/19 08:01:02;;;;;;;6.03;1.70;;;1.90;99.90;;;;;;5094691;28;20191;-90
2023/10/19 08:03:30;;;;;;;4.18;1.35;;;1.90;99.90;;;;;;5103632;28;20207;-90
2023/10/19 08:05:58;;;;;;;5.63;2.30;;;2.00;99.90;;;;;;5107696;28;20202;-89
2023/10/19 08:08:28;;;;;;;2.53;1.45;;;1.90;99.90;;;;;;5090863;28;20208;-89
2023/10/19 08:10:56;;;;;;;5.25;1.55;;;2.00;99.90;;;;;;5074310;28;20195;-90
2023/10/19 08:13:26;;;;;;;4.78;1.70;;;2.10;99.90;;;;;;5057183;28;20224;-89
2023/10/19 08:15:57;;;;;;;7.47;1.45;;;2.10;99.90;;;;;;5103275;28;20187;-90
2023/10/19 08:18:25;;;;;;;5.30;1.30;;;2.00;99.90;;;;;;5091302;28;20710;-89
2023/10/19 08:20:53;;;;;;;3.47;1.65;;;2.00;99.90;;;;;;5074179;28;20189;-90
2023/10/19 08:23:25;;;;;;;4.03;1.30;;;2.10;99.90;;;;;;5073730;28;20215;-89
2023/10/19 08:25:52;;;;;;;5.13;1.88;;;1.90;99.90;;;;;;5075022;28;20898;-90
2023/10/19 08:28:24;;;;;;;4.07;1.35;;;2.00;99.90;;;;;;5057929;28;20699;-88
2023/10/19 08:31:00;;;;;;;3.53;1.38;;;2.00;99.90;;;;;;5079086;28;20195;-89
2023/10/19 08:33:29;;;;;;;3.55;1.55;;;1.90;99.90;;;;;;5093570;28;20320;-90
2023/10/19 08:35:57;;;;;;;5.13;1.42;;;2.00;99.90;;;;;;5092180;28;20208;-89
2023/10/19 08:38:26;;;;;;;2.08;1.23;;;2.10;99.90;;;;;;5090157;28;20195;-90
2023/10/19 08:40:54;;;;;;;4.45;1.58;;;2.10;99.90;;;;;;5081828;28;20255;-89
2023/10/19 08:43:24;;;;;;;3.45;1.50;;;2.10;99.90;;;;;;5088713;28;20682;-89
2023/10/19 08:45:53;;;;;;;2.53;1.20;;;2.20;99.90;;;;;;5089002;28;20196;-88
2023/10/19 08:48:22;;;;;;;3.80;1.50;;;2.10;99.90;;;;;;5093672;28;20198;-90
2023/10/19 08:50:51;;;;;;;3.75;1.70;;;2.20;99.90;;;;;;5092360;28;20213;-89
2023/10/19 08:53:21;;;;;;;5.15;1.48;;;2.30;99.90;;;;;;5090979;28;20196;-89
2023/10/19 08:55:50;;;;;;;2.97;1.30;;;2.20;99.90;;;;;;5092266;28;20709;-91
2023/10/19 08:58:22;;;;;;;4.20;1.33;;;2.20;99.90;;;;;;5080342;28;20184;-88
2023/10/19 09:00:54;;;;;;;3.20;1.50;;;2.30;99.90;;;;;;5080622;28;20276;-89
2023/10/19 09:03:26;;;;;;;3.63;1.30;;;2.30;99.90;;;;;;5083545;28;20211;-86
2023/10/19 09:05:56;;;;;;;3.50;1.63;;;2.20;99.90;;;;;;5068529;28;20283;-88
2023/10/19 09:08:24;;;;;;;3.83;1.55;;;2.30;99.90;;;;;;5073137;28;20192;-86
2023/10/19 09:10:53;;;;;;;3.03;1.40;;;2.10;99.90;;;;;;5084665;28;20180;-87
2023/10/19 09:13:22;;;;;;;2.78;1.50;;;2.20;99.90;;;;;;5084904;28;20288;-88
2023/10/19 09:15:55;;;;;;;5.28;1.60;;;2.20;99.90;;;;;;5087120;28;20271;-87
2023/10/19 09:18:27;;;;;;;4.82;1.50;;;2.30;99.90;;;;;;5074413;28;20380;-88
2023/10/19 09:21:07;;;;;;;3.55;1.33;;;2.40;99.90;;;;;;5084154;28;20177;-88
2023/10/19 09:23:36;;;;;;;3.80;1.52;;;2.40;99.90;;;;;;5069116;28;20743;-87
2023/10/19 09:26:05;;;;;;;3.95;1.40;;;2.30;99.90;;;;;;5069801;28;20185;-88
2023/10/19 09:28:37;;;;;;;2.55;1.50;;;2.30;99.90;;;;;;5092658;28;20200;-87
2023/10/19 09:31:09;;;;;;;3.83;1.50;;;2.40;99.90;;;;;;5077097;28;20207;-88
2023/10/19 09:33:41;;;;;;;3.35;1.30;;;2.40;99.90;;;;;;5088587;28;20224;-89
2023/10/19 09:36:13;;;;;;;5.43;1.70;;;2.40;99.90;;;;;;5075942;28;20208;-88
2023/10/19 09:38:48;;;;;;;2.00;1.40;;;2.50;99.90;;;;;;5091158;28;20594;-89
2023/10/19 09:41:19;;;;;;;3.53;1.40;;;2.50;99.90;;;;;;5098960;28;20665;-89
2023/10/19 09:43:48;;;;;;;3.58;1.85;;;2.50;99.90;;;;;;5073838;28;20290;-88
2023/10/19 09:46:31;;;;;;;4.25;1.40;;;2.30;99.90;;;;;;5095021;28;20203;-89
2023/10/19 09:48:59;;;;;;;3.67;1.45;;;2.30;99.90;;;;;;5081332;28;20191;-88
2023/10/19 09:51:28;;;;;;;2.30;1.48;;;2.40;99.90;;;;;;5066941;28;20184;-89
2023/10/19 09:54:42;;;;;;;3.35;1.60;;;2.40;99.90;;;;;;5092293;28;20295;-89
2023/10/19 09:57:16;;;;;;;2.38;1.17;;;2.30;99.90;;;;;;5087675;28;20203;-90
2023/10/19 09:59:51;;;;;;;5.13;1.58;;;2.40;99.90;;;;;;5100306;28;20212;-89
2023/10/19 10:02:21;;;;;;;3.17;1.58;;;2.40;99.90;;;;;;5097339;28;20282;-89
2023/10/19 10:04:57;;;;;;;4.50;1.85;;;2.40;99.90;;;;;;5090410;28;20730;-89
2023/10/19 10:07:25;;;;;;;3.85;1.60;;;2.40;99.90;;;;;;5090185;28;20181;-89
2023/10/19 10:10:08;;;;;;;3.40;1.48;;;2.40;99.90;;;;;;5059522;28;20195;-90
2023/10/19 10:12:39;;;;;;;3.45;1.63;;;2.40;99.90;;;;;;5072169;28;20274;-89
2023/10/19 10:15:07;;;;;;;3.03;1.50;;;2.50;99.90;;;;;;5082595;28;20199;-89
2023/10/19 10:17:39;;;;;;;2.80;1.40;;;2.40;99.90;;;;;;5071893;28;20276;-89
2023/10/19 10:20:13;;;;;;;4.90;1.23;;;2.40;99.90;;;;;;5056781;28;20216;-89
2023/10/19 10:22:42;;;;;;;3.63;1.30;;;2.40;99.90;;;;;;5087609;28;20258;-89
2023/10/19 10:25:29;;;;;;;2.47;1.30;;;2.40;99.90;;;;;;5102718;28;20190;-90
2023/10/19 10:27:56;;;;;;;3.65;1.15;;;2.40;99.90;;;;;;5062906;28;20189;-89
2023/10/19 10:30:25;;;;;;;2.85;1.42;;;2.50;99.90;;;;;;5072504;28;20238;-90
2023/10/19 10:32:55;;;;;;;4.32;1.40;;;2.60;99.90;;;;;;5075080;28;20259;-89
2023/10/19 10:35:39;;;;;;;2.20;1.17;;;2.60;99.90;;;;;;5075013;28;20203;-89
2023/10/19 10:38:15;;;;;;;4.38;1.40;;;2.60;99.90;;;;;;5103834;28;20200;-90
2023/10/19 10:40:49;;;;;;;3.95;1.35;;;2.50;99.90;;;;;;5092546;28;20200;-90
2023/10/19 10:43:19;;;;;;;3.35;1.27;;;2.60;99.90;;;;;;5078798;28;20188;-89
2023/10/19 10:45:47;;;;;;;3.50;1.40;;;2.60;99.90;;;;;;5070660;28;20212;-89
2023/10/19 10:48:17;;;;;;;5.40;1.25;;;2.60;99.90;;;;;;5093712;28;20194;-89
2023/10/19 10:50:46;;;;;;;3.95;1.70;;;2.60;99.90;;;;;;5105215;28;20185;-89
2023/10/19 10:53:15;;;;;;;3.42;1.30;;;2.50;99.90;;;;;;5086226;28;20199;-89
2023/10/19 10:55:43;;;;;;;2.50;1.23;;;2.50;99.90;;;;;;5100329;28;20186;-89
2023/10/19 10:58:21;;;;;;;2.78;1.17;;;2.60;99.90;;;;;;5133455;27;20203;-89
2023/10/19 11:00:51;;;;;;;2.55;1.38;;;2.60;99.90;;;;;;5099676;28;20282;-89
2023/10/19 11:03:19;;;;;;;4.78;1.30;;;2.50;99.90;;;;;;5110433;28;20260;-89
2023/10/19 11:05:47;;;;;;;5.60;1.20;;;2.60;99.90;;;;;;5115525;28;20236;-88
2023/10/19 11:08:16;;;;;;;1.98;1.05;;;2.60;99.90;;;;;;5115284;28;20227;-88
2023/10/19 11:10:46;;;;;;;3.35;1.40;;;2.70;99.90;;;;;;5100395;28;20183;-89
2023/10/19 11:13:16;;;;;;;1.67;0.93;;;2.70;99.90;;;;;;5095299;28;20551;-89
2023/10/19 11:15:53;;;;;;;4.55;1.17;;;2.70;99.90;;;;;;5095391;28;20200;-88
2023/10/19 11:18:32;;;;;;;2.67;1.55;;;2.60;99.90;;;;;;5083794;28;20266;-88
2023/10/19 11:21:04;;;;;;;3.05;1.30;;;2.60;99.90;;;;;;5078292;28;20248;-89
2023/10/19 11:23:39;;;;;;;3.53;1.40;;;2.60;99.90;;;;;;5086376;28;20175;-89
2023/10/19 11:26:07;;;;;;;2.95;1.20;;;2.60;99.90;;;;;;5097464;28;20198;-89
2023/10/19 11:28:42;;;;;;;4.95;1.33;;;2.60;99.90;;;;;;5096469;28;20175;-89
2023/10/19 11:31:12;;;;;;;2.85;1.40;;;2.60;99.90;;;;;;5100317;28;20207;-89
2023/10/19 11:33:42;;;;;;;2.83;1.40;;;2.60;99.90;;;;;;5060165;28;20224;-89
2023/10/19 11:36:14;;;;;;;3.90;1.48;;;2.60;99.90;;;;;;5093562;28;20196;-89
2023/10/19 11:38:44;;;;;;;2.35;1.25;;;2.60;99.90;;;;;;5075879;28;20209;-88
2023/10/19 11:41:13;;;;;;;2.70;1.30;;;2.60;99.90;;;;;;5091196;28;20276;-89
2023/10/19 11:43:42;;;;;;;3.28;1.25;;;2.50;99.90;;;;;;5073406;28;20173;-89
2023/10/19 11:46:22;;;;;;;3.67;1.40;;;2.50;99.90;;;;;;5074585;28;20189;-89
2023/10/19 11:48:50;;;;;;;3.05;1.20;;;2.60;99.90;;;;;;5091798;28;20272;-89
2023/10/19 11:51:18;;;;;;;3.70;1.65;;;2.50;99.90;;;;;;5074532;28;20251;-89
2023/10/19 11:53:46;;;;;;;5.25;1.55;;;2.50;99.90;;;;;;5110196;28;20184;-89
2023/10/19 11:56:16;;;;;;;2.97;1.40;;;2.50;99.90;;;;;;5094331;28;20246;-88
2023/10/19 11:58:46;;;;;;;2.95;1.33;;;2.50;99.90;;;;;;5078150;28;20623;-89
2023/10/19 12:01:16;;;;;;;4.32;1.40;;;2.50;99.90;;;;;;5077775;28;20187;-89
2023/10/19 12:03:45;;;;;;;3.45;1.38;;;2.60;99.90;;;;;;5090434;28;20184;-89
2023/10/19 12:06:23;;;;;;;2.88;1.33;;;2.70;99.90;;;;;;5076783;28;20168;-90
2023/10/19 12:08:51;;;;;;;3.22;1.27;;;2.60;99.90;;;;;;5082910;28;20184;-89
2023/10/19 12:11:19;;;;;;;4.65;1.50;;;2.60;99.90;;;;;;5076168;28;20180;-89
2023/10/19 12:13:47;;;;;;;3.10;1.40;;;2.60;99.90;;;;;;5080645;28;20203;-88
2023/10/19 12:16:16;;;;;;;3.75;1.70;;;2.60;99.90;;;;;;5075025;28;20172;-89
2023/10/19 12:18:46;;;;;;;4.47;1.55;;;2.60;99.90;;;;;;5078320;28;20204;-89
2023/10/19 12:21:14;;;;;;;3.03;1.40;;;2.60;99.90;;;;;;5098147;28;20191;-88
2023/10/19 12:23:43;;;;;;;3.05;1.60;;;2.60;99.90;;;;;;5091783;28;20176;-89
2023/10/19 12:26:11;;;;;;;4.30;1.40;;;2.60;99.90;;;;;;5093025;28;20749;-90
2023/10/19 12:28:40;;;;;;;2.60;1.33;;;2.40;99.90;;;;;;5057239;28;20193;-89
2023/10/19 12:31:09;;;;;;;5.18;1.40;;;2.50;99.90;;;;;;5087981;28;20207;-88
2023/10/19 12:33:38;;;;;;;4.72;1.48;;;2.50;99.90;;;;;;5069943;28;20229;-88
2023/10/19 12:36:31;;;;;;;4.10;1.48;;;2.50;99.90;;;;;;5093235;28;20560;-89
2023/10/19 12:39:04;;;;;;;6.63;2.70;;;2.40;99.90;;;;;;5095790;28;20190;-89
2023/10/19 12:41:34;;;;;;;7.25;2.55;;;2.50;99.90;;;;;;5092221;28;20179;-89
2023/10/19 12:44:07;;;;;;;4.13;1.70;;;2.50;99.90;;;;;;5093284;28;20677;-89
2023/10/19 12:46:36;;;;;;;3.28;1.80;;;2.60;99.90;;;;;;5089456;28;20725;-88
2023/10/19 12:49:08;;;;;;;3.35;2.00;;;2.50;99.90;;;;;;5061346;28;20172;-89
2023/10/19 12:51:36;;;;;;;2.10;1.08;;;2.60;99.90;;;;;;5092077;28;20192;-89
2023/10/19 12:54:04;;;;;;;2.90;1.27;;;2.50;99.90;;;;;;5076681;28;20237;-89
2023/10/19 12:56:33;;;;;;;3.05;1.73;;;2.50;99.90;;;;;;5072500;28;20192;-89
2023/10/19 12:59:01;;;;;;;5.00;1.80;;;2.50;99.90;;;;;;5074158;28;20277;-89
2023/10/19 13:01:33;;;;;;;2.80;1.70;;;2.50;99.90;;;;;;5073079;28;20674;-89
2023/10/19 13:04:13;;;;;;;3.42;2.05;;;2.60;99.90;;;;;;5094315;28;20203;-89
2023/10/19 13:06:42;;;;;;;2.40;1.33;;;2.60;99.90;;;;;;5109926;28;20341;-88
2023/10/19 13:09:10;;;;;;;4.45;1.42;;;2.60;99.90;;;;;;5096923;28;20282;-89
2023/10/19 13:11:38;;;;;;;3.08;1.40;;;2.70;99.90;;;;;;5107254;28;20274;-89
2023/10/19 13:14:06;;;;;;;4.60;1.30;;;2.60;99.90;;;;;;5113552;28;20258;-89
2023/10/19 13:16:35;;;;;;;2.17;1.27;;;2.50;99.90;;;;;;5105136;28;20263;-89
2023/10/19 13:19:11;;;;;;;2.55;1.17;;;2.60;99.90;;;;;;5092483;28;20201;-89
2023/10/19 13:21:44;;;;;;;4.03;1.42;;;2.50;99.90;;;;;;5074539;28;20581;-88
2023/10/19 13:24:13;;;;;;;4.82;2.17;;;2.50;99.90;;;;;;5094472;28;20613;-86
2023/10/19 13:26:45;;;;;;;3.92;1.40;;;2.50;99.90;;;;;;5102006;28;20183;-89
2023/10/19 13:29:15;;;;;;;3.88;1.70;;;2.50;99.90;;;;;;5090438;28;20618;-89
2023/10/19 13:31:48;;;;;;;3.33;1.15;;;2.50;99.90;;;;;;5086729;28;20187;-88
2023/10/19 13:34:17;;;;;;;6.53;1.40;;;2.50;99.90;;;;;;5080588;28;20251;-89
2023/10/19 13:36:46;;;;;;;3.05;1.45;;;2.50;99.90;;;;;;5091914;28;20261;-89
2023/10/19 13:39:16;;;;;;;2.70;1.40;;;2.50;99.90;;;;;;5091721;28;20209;-89